Time;durP1;ratioP1;P1;durP2;ratioP2;P2;SDS_P1;SDS_P2;PMS_P1;PMS_P2;Temp;Humidity;BMP_temperature;BMP_pressure;BME280_temperature;BME280_humidity;BME280_pressure;Samples;Min_cycle;Max_cycle;Signal;HPM_P1;HPM_P2
2021/07/26 00:00:54;;;;;;;22.87;14.68;;;;;;;17.28;88.28;100569.42;1756718;80;21134;-75
2021/07/26 00:03:21;;;;;;;21.87;15.28;;;;;;;17.31;87.97;100575.03;1756845;81;21055;-75
2021/07/26 00:05:56;;;;;;;22.20;14.83;;;;;;;17.30;88.29;100569.31;1754406;81;21551;-78
2021/07/26 00:08:25;;;;;;;23.50;14.33;;;;;;;17.27;88.41;100578.33;1730306;82;21002;-75
2021/07/26 00:11:06;;;;;;;25.35;15.45;;;;;;;17.25;88.75;100572.23;1756532;81;21024;-77
2021/07/26 00:13:35;;;;;;;24.55;15.13;;;;;;;17.25;88.36;100576.23;1713447;83;21508;-75
2021/07/26 00:16:03;;;;;;;22.27;14.40;;;;;;;17.25;88.14;100579.37;1737628;82;21105;-75
2021/07/26 00:18:30;;;;;;;22.58;15.85;;;;;;;17.22;88.42;100577.75;1737154;82;21572;-76
2021/07/26 00:20:57;;;;;;;21.17;14.05;;;;;;;17.19;88.76;100577.94;1737573;82;21053;-77
2021/07/26 00:23:24;;;;;;;26.12;15.55;;;;;;;17.15;89.05;100573.25;1737394;82;21061;-77
2021/07/26 00:25:52;;;;;;;24.65;15.75;;;;;;;17.15;89.54;100576.39;1737467;82;21604;-77
2021/07/26 00:28:19;;;;;;;17.57;11.43;;;;;;;17.11;89.71;100575.69;1738171;82;21006;-78
2021/07/26 00:30:46;;;;;;;18.57;10.50;;;;;;;17.09;89.67;100576.73;1740087;82;21081;-77
2021/07/26 00:34:07;;;;;;;23.55;15.23;;;;;;;17.08;89.14;100576.36;1739811;82;21597;-75
2021/07/26 00:36:44;;;;;;;25.05;14.50;;;;;;;17.08;89.18;100575.03;1677259;85;21109;-75
2021/07/26 00:39:13;;;;;;;24.63;14.65;;;;;;;17.06;88.93;100571.59;1676930;85;21124;-75
2021/07/26 00:41:40;;;;;;;17.62;12.95;;;;;;;17.05;88.69;100577.39;1714240;82;21096;-75
2021/07/26 00:44:07;;;;;;;22.40;14.73;;;;;;;17.05;88.93;100573.88;1739838;82;21070;-75
2021/07/26 00:46:34;;;;;;;23.40;14.55;;;;;;;17.07;89.01;100571.96;1739841;82;21049;-74
2021/07/26 00:49:04;;;;;;;25.05;14.75;;;;;;;17.06;89.10;100567.60;1740095;82;22118;-74
2021/07/26 00:51:33;;;;;;;;;;;;;;;17.07;89.29;100573.30;1742876;82;21945;-75
2021/07/26 00:54:00;;;;;;;24.70;14.60;;;;;;;17.04;89.11;100569.48;1740154;82;20223;-75
2021/07/26 00:56:27;;;;;;;21.95;15.20;;;;;;;17.01;88.83;100573.66;1739843;82;21575;-74
2021/07/26 00:58:54;;;;;;;25.68;15.58;;;;;;;16.98;89.04;100571.56;1739810;82;21053;-73
2021/07/26 01:01:21;;;;;;;23.32;16.70;;;;;;;16.96;89.56;100566.80;1713047;82;21057;-76
2021/07/26 01:03:48;;;;;;;33.73;17.27;;;;;;;16.91;90.05;100571.52;1740535;82;21619;-75
2021/07/26 01:06:15;;;;;;;22.90;15.80;;;;;;;16.86;90.50;100573.56;1740018;82;21072;-74
2021/07/26 01:08:43;;;;;;;23.22;16.75;;;;;;;16.84;90.54;100572.81;1739915;82;21583;-75
2021/07/26 01:11:11;;;;;;;26.68;17.02;;;;;;;16.83;90.35;100568.42;1739969;82;21607;-79
2021/07/26 01:13:38;;;;;;;26.60;16.93;;;;;;;16.82;90.72;100569.38;1720856;82;21056;-77
2021/07/26 01:16:06;;;;;;;32.75;17.82;;;;;;;16.81;90.81;100569.45;1710089;83;22020;-78
2021/07/26 01:18:35;;;;;;;33.38;18.15;;;;;;;16.80;90.75;100567.75;1763193;81;20985;-78
2021/07/26 01:21:14;;;;;;;29.98;19.23;;;;;;;16.76;90.75;100561.70;1770670;81;21056;-79
2021/07/26 01:23:44;;;;;;;29.12;17.52;;;;;;;16.73;90.94;100567.20;1770537;81;21080;-78
2021/07/26 01:26:13;;;;;;;29.07;17.98;;;;;;;16.68;91.33;100563.47;1770779;81;21095;-77
2021/07/26 01:28:47;;;;;;;28.55;17.65;;;;;;;16.63;91.57;100560.66;1766573;81;21108;-77
2021/07/26 01:33:02;;;;;;;36.13;19.02;;;;;;;16.61;92.04;100558.11;1798563;78;22721;-77
2021/07/26 01:35:29;;;;;;;26.95;18.10;;;;;;;16.55;91.97;100559.29;1786095;80;20942;-77
2021/07/26 01:37:56;;;;;;;26.62;15.93;;;;;;;16.53;92.01;100553.19;1790423;80;21501;-77
2021/07/26 01:40:24;;;;;;;25.82;15.35;;;;;;;16.51;92.06;100556.88;1773712;80;21591;-78
2021/07/26 01:43:00;;;;;;;28.50;18.15;;;;;;;16.51;92.00;100558.21;1787590;80;21183;-79
2021/07/26 01:45:20;;;;;;;27.00;17.80;;;;;;;16.50;91.94;100557.36;1756979;80;20933;-78
2021/07/26 01:47:51;;;;;;;23.05;16.00;;;;;;;16.48;92.17;100557.91;1758953;79;20988;-76
2021/07/26 01:50:20;;;;;;;32.85;18.60;;;;;;;16.44;92.33;100557.69;1740244;81;22119;-76
2021/07/26 01:52:47;;;;;;;29.98;20.48;;;;;;;16.42;92.24;100556.91;1724273;83;21088;-78
2021/07/26 01:55:17;;;;;;;39.63;20.10;;;;;;;16.41;92.39;100557.86;1728675;81;21737;-77
2021/07/26 01:57:44;;;;;;;33.58;20.27;;;;;;;16.38;92.78;100556.71;1730196;82;21825;-76
2021/07/26 02:00:13;;;;;;;34.27;20.65;;;;;;;16.36;92.96;100559.92;1739197;82;21687;-77
2021/07/26 02:02:40;;;;;;;36.73;21.15;;;;;;;16.32;93.16;100559.69;1732418;81;22222;-76
2021/07/26 02:05:07;;;;;;;37.73;20.68;;;;;;;16.28;93.37;100566.11;1733748;82;21046;-76
2021/07/26 02:07:34;;;;;;;39.65;20.12;;;;;;;16.23;93.62;100565.50;1742406;81;21349;-75
2021/07/26 02:10:01;;;;;;;36.38;20.55;;;;;;;16.21;93.79;100567.38;1740803;81;21081;-76
2021/07/26 02:12:28;;;;;;;36.58;20.85;;;;;;;16.20;93.19;100563.02;1738150;81;21106;-75
2021/07/26 02:14:55;;;;;;;33.92;20.08;;;;;;;16.19;93.60;100562.61;1709054;82;21113;-77
2021/07/26 02:17:22;;;;;;;37.38;20.82;;;;;;;16.19;93.76;100562.13;1727568;82;21663;-75
2021/07/26 02:19:49;;;;;;;35.85;18.82;;;;;;;16.19;93.72;100555.97;1729272;82;21128;-76
2021/07/26 02:22:16;;;;;;;27.98;18.37;;;;;;;16.19;93.62;100562.61;1703308;82;21369;-75
2021/07/26 02:24:43;;;;;;;35.08;19.73;;;;;;;16.20;93.67;100569.19;1716931;82;21543;-75
2021/07/26 02:27:10;;;;;;;36.70;19.65;;;;;;;16.20;93.59;100561.69;1696388;83;21443;-75
2021/07/26 02:29:37;;;;;;;23.92;14.55;;;;;;;16.21;93.67;100564.72;1697209;82;21151;-72
2021/07/26 02:32:05;;;;;;;35.45;19.23;;;;;;;16.21;93.80;100565.58;1714216;82;21746;-74
2021/07/26 02:34:32;;;;;;;29.65;18.57;;;;;;;16.21;93.65;100564.24;1719911;82;21080;-75
2021/07/26 02:36:59;;;;;;;35.90;20.40;;;;;;;16.22;93.59;100569.97;1721335;82;21030;-79
2021/07/26 02:39:26;;;;;;;38.45;20.70;;;;;;;16.24;93.68;100570.75;1701657;82;21094;-75
2021/07/26 02:41:53;;;;;;;38.23;21.10;;;;;;;16.27;93.78;100573.70;1692617;82;21053;-76
2021/07/26 02:44:20;;;;;;;38.92;21.17;;;;;;;16.28;93.95;100571.42;1718825;82;20995;-77
2021/07/26 02:46:47;;;;;;;36.25;21.48;;;;;;;16.27;94.19;100575.89;1728436;82;21183;-76
2021/07/26 02:49:13;;;;;;;34.15;20.82;;;;;;;16.27;94.30;100581.68;1727147;82;21077;-75
2021/07/26 02:51:40;;;;;;;44.58;22.17;;;;;;;16.27;94.51;100584.34;1703912;82;21085;-77
2021/07/26 02:54:07;;;;;;;36.48;21.42;;;;;;;16.28;94.71;100584.23;1689962;83;21032;-77
2021/07/26 02:56:35;;;;;;;35.05;21.17;;;;;;;16.29;94.90;100586.45;1690061;82;21649;-78
2021/07/26 02:59:03;;;;;;;36.83;20.70;;;;;;;16.30;94.66;100586.82;1719198;82;21137;-79
2021/07/26 03:01:32;;;;;;;37.35;20.15;;;;;;;16.34;94.60;100579.08;1718553;81;21032;-77
2021/07/26 03:04:01;;;;;;;34.78;18.40;;;;;;;16.42;94.76;100579.50;1689753;84;21178;-78
2021/07/26 03:06:28;;;;;;;29.00;17.12;;;;;;;16.48;94.67;100584.50;1664971;85;21121;-79
2021/07/26 03:08:54;;;;;;;36.48;21.10;;;;;;;16.57;94.43;100583.99;1680750;84;21090;-84
2021/07/26 03:11:21;;;;;;;33.58;19.90;;;;;;;16.65;94.32;100592.02;1671877;84;21132;-81
2021/07/26 03:13:49;;;;;;;32.55;18.65;;;;;;;16.74;94.18;100592.84;1662029;84;21060;-81
2021/07/26 03:16:16;;;;;;;41.20;22.20;;;;;;;16.84;93.98;100591.44;1707822;83;21088;-84
2021/07/26 03:18:45;;;;;;;27.87;16.35;;;;;;;16.93;93.79;100588.27;1695824;83;21154;-76
2021/07/26 03:21:15;;;;;;;37.48;19.50;;;;;;;17.06;93.44;100591.06;1718225;82;21695;-78
2021/07/26 03:23:42;;;;;;;;;;;;;;;17.18;93.23;100588.17;1721749;83;21675;-80
2021/07/26 03:26:09;;;;;;;33.65;19.85;;;;;;;17.30;92.72;100586.16;1711162;83;20179;-79
2021/07/26 03:28:36;;;;;;;37.03;20.12;;;;;;;17.43;92.33;100585.44;1698729;83;21116;-79
2021/07/26 03:31:03;;;;;;;42.35;21.93;;;;;;;17.58;91.75;100588.55;1697984;83;21037;-79
2021/07/26 03:33:31;;;;;;;34.00;19.40;;;;;;;17.73;91.47;100588.95;1685106;84;21631;-80
2021/07/26 03:35:58;;;;;;;34.85;20.25;;;;;;;17.90;90.53;100585.33;1703131;83;21041;-79
2021/07/26 03:38:25;;;;;;;33.02;18.80;;;;;;;18.09;90.09;100581.06;1692854;83;21076;-79
2021/07/26 03:40:52;;;;;;;36.75;20.05;;;;;;;18.37;89.08;100584.69;1692692;83;21492;-80
2021/07/26 03:43:19;;;;;;;32.23;19.05;;;;;;;18.79;87.63;100593.63;1699321;83;21132;-82
2021/07/26 03:45:46;;;;;;;34.13;18.87;;;;;;;19.31;86.36;100596.92;1711478;83;21084;-80
2021/07/26 03:48:13;;;;;;;30.50;17.05;;;;;;;19.84;83.93;100593.81;1693741;83;21033;-80
2021/07/26 03:50:40;;;;;;;32.65;19.32;;;;;;;20.32;81.30;100594.53;1667483;84;21388;-82
2021/07/26 03:53:07;;;;;;;28.47;18.23;;;;;;;20.74;78.77;100593.31;1682943;83;21935;-79
2021/07/26 03:55:36;;;;;;;34.50;19.92;;;;;;;21.09;75.54;100592.55;1666353;84;21132;-81
2021/07/26 03:58:03;;;;;;;36.58;19.23;;;;;;;21.44;73.89;100590.47;1685184;83;21128;-81
2021/07/26 04:00:31;;;;;;;34.75;20.17;;;;;;;21.80;72.89;100588.63;1661100;84;21075;-81
2021/07/26 04:05:34;;;;;;;35.43;19.87;;;;;;;22.54;71.05;100592.27;1672398;84;21754;-79
2021/07/26 04:08:08;;;;;;;35.80;20.92;;;;;;;22.85;69.59;100589.82;1678817;84;21621;-80
2021/07/26 04:10:38;;;;;;;37.98;20.10;;;;;;;23.08;68.63;100590.66;1682732;84;21071;-80
2021/07/26 04:15:52;;;;;;;36.08;20.35;;;;;;;23.77;65.66;100588.94;1840038;78;23345;-80
2021/07/26 04:18:19;;;;;;;32.85;19.80;;;;;;;23.93;64.70;100581.27;1815849;79;20977;-77
2021/07/26 04:20:46;;;;;;;33.38;17.30;;;;;;;24.23;63.86;100589.01;1815238;79;21072;-81
2021/07/26 04:23:14;;;;;;;23.83;15.80;;;;;;;24.51;61.50;100586.62;1807790;79;21061;-80
2021/07/26 04:25:42;;;;;;;29.87;18.52;;;;;;;24.75;60.06;100580.88;1808833;79;21006;-80
2021/07/26 04:28:09;;;;;;;26.02;14.93;;;;;;;25.00;59.61;100586.25;1813104;79;21059;-79
2021/07/26 04:30:36;;;;;;;24.40;18.10;;;;;;;25.25;58.75;100588.44;1815807;79;21033;-80
2021/07/26 04:33:03;;;;;;;26.17;15.75;;;;;;;25.54;58.33;100578.17;1815894;79;21056;-80
2021/07/26 04:35:30;;;;;;;26.10;17.05;;;;;;;25.78;57.21;100583.11;1815553;79;21096;-81
2021/07/26 04:37:57;;;;;;;25.30;16.45;;;;;;;26.07;56.39;100575.50;1815745;79;21021;-81
2021/07/26 04:40:24;;;;;;;24.23;14.40;;;;;;;26.28;55.44;100585.58;1815793;79;21044;-81
2021/07/26 04:42:51;;;;;;;23.20;16.05;;;;;;;26.48;54.66;100578.26;1810971;78;21068;-80
2021/07/26 04:45:19;;;;;;;23.98;14.93;;;;;;;26.67;54.11;100577.84;1782720;79;21306;-81
2021/07/26 04:47:45;;;;;;;24.12;14.20;;;;;;;26.87;52.38;100580.80;1819011;77;20985;-81
2021/07/26 04:50:12;;;;;;;18.75;13.55;;;;;;;27.02;51.23;100581.11;1836965;77;21081;-81
2021/07/26 04:52:39;;;;;;;19.90;14.33;;;;;;;27.11;50.66;100579.34;1846511;77;21549;-80
2021/07/26 04:55:08;;;;;;;19.25;13.78;;;;;;;27.26;49.85;100584.58;1801940;77;21021;-81
2021/07/26 04:57:34;;;;;;;17.80;12.85;;;;;;;27.36;50.07;100585.38;1840339;77;21103;-80
2021/07/26 05:00:01;;;;;;;23.20;14.73;;;;;;;27.43;49.73;100581.55;1845987;77;21013;-80
2021/07/26 05:02:28;;;;;;;18.52;12.70;;;;;;;27.53;49.62;100586.88;1846441;77;21088;-79
2021/07/26 05:33:06;;;;;;;14.95;12.60;;;;;;;29.16;45.97;100565.28;1834490;77;21967;-80
2021/07/26 05:35:34;;;;;;;14.68;11.83;;;;;;;29.28;45.13;100555.80;1800160;79;21510;-77
2021/07/26 05:38:04;;;;;;;20.27;13.78;;;;;;;29.41;45.21;100562.09;1806303;78;21261;-81
2021/07/26 05:40:32;;;;;;;22.20;14.68;;;;;;;29.60;44.47;100557.34;1813391;78;21517;-78
2021/07/26 05:42:59;;;;;;;18.32;13.55;;;;;;;29.72;43.62;100558.71;1798603;78;21035;-80
2021/07/26 05:45:28;;;;;;;17.30;13.40;;;;;;;29.69;43.50;100556.35;1779147;80;21261;-79
2021/07/26 05:47:56;;;;;;;16.50;13.15;;;;;;;29.65;43.39;100559.03;1765169;81;21486;-79
2021/07/26 05:50:24;;;;;;;19.40;13.03;;;;;;;29.42;43.03;100556.16;1778766;80;20977;-79
2021/07/26 05:52:51;;;;;;;15.85;13.62;;;;;;;29.29;43.28;100559.38;1790848;80;21512;-79
2021/07/26 05:55:18;;;;;;;15.78;13.20;;;;;;;29.27;42.89;100561.41;1765559;81;21033;-80
2021/07/26 07:02:23;;;;;;;14.00;10.35;;;;;;;32.15;34.64;100578.16;1797048;77;23014;-73
2021/07/26 07:04:50;;;;;;;13.68;9.18;;;;;;;32.26;33.62;100582.31;1797546;79;21571;-76
2021/07/26 07:07:17;;;;;;;19.00;9.33;;;;;;;32.44;33.82;100579.18;1806018;78;21514;-75
2021/07/26 07:09:45;;;;;;;18.48;9.68;;;;;;;32.56;33.80;100589.47;1820144;78;21599;-74
2021/07/26 07:12:17;;;;;;;14.00;9.25;;;;;;;32.52;33.45;100591.39;1813985;78;20945;-74
2021/07/26 07:14:44;;;;;;;15.65;9.33;;;;;;;32.62;33.21;100584.28;1830381;78;21079;-75
2021/07/26 07:17:11;;;;;;;14.75;9.48;;;;;;;32.64;31.77;100583.05;1827926;78;21565;-73
2021/07/26 07:19:43;;;;;;;23.15;10.18;;;;;;;32.12;32.80;100596.25;1824694;77;21139;-73
2021/07/26 07:22:08;;;;;;;17.23;9.35;;;;;;;31.84;34.30;100594.60;1819356;78;21044;-75
2021/07/26 07:24:40;;;;;;;12.82;9.80;;;;;;;31.68;33.85;100598.31;1798119;78;21029;-74
2021/07/26 07:27:10;;;;;;;14.38;10.35;;;;;;;31.38;33.61;100594.62;1775755;78;21755;-74
2021/07/26 07:29:38;;;;;;;14.95;10.10;;;;;;;31.21;34.15;100597.45;1803096;78;20986;-74
2021/07/26 07:32:05;;;;;;;14.65;10.53;;;;;;;31.30;34.44;100604.53;1822906;78;21456;-75
2021/07/26 07:34:32;;;;;;;12.28;9.80;;;;;;;31.71;33.71;100596.61;1797990;79;22016;-74
2021/07/26 07:37:01;;;;;;;12.95;10.10;;;;;;;32.04;33.17;100603.13;1798065;79;21512;-74
2021/07/26 07:39:29;;;;;;;13.70;9.65;;;;;;;32.21;32.63;100604.67;1803199;78;21013;-73
2021/07/26 07:41:56;;;;;;;13.45;9.03;;;;;;;32.28;32.54;100608.34;1816249;78;21130;-75
2021/07/26 07:44:29;;;;;;;14.95;9.08;;;;;;;32.39;32.07;100596.97;1813511;78;22239;-74
2021/07/26 07:46:51;;;;;;;17.73;10.25;;;;;;;32.55;32.47;100600.55;1822893;78;21539;-75
2021/07/26 07:49:19;;;;;;;12.13;9.53;;;;;;;32.56;32.38;100607.70;1824747;78;21069;-74
2021/07/26 07:51:47;;;;;;;12.58;9.28;;;;;;;32.57;32.14;100606.13;1812864;78;21044;-74
2021/07/26 07:54:15;;;;;;;13.13;9.83;;;;;;;32.75;31.36;100604.38;1773171;80;21037;-74
2021/07/26 07:56:43;;;;;;;13.83;9.15;;;;;;;33.05;31.03;100609.80;1786661;79;21143;-74
2021/07/26 07:59:11;;;;;;;13.35;9.78;;;;;;;33.13;31.37;100604.25;1790040;79;21072;-74
2021/07/26 08:01:38;;;;;;;19.55;10.32;;;;;;;33.25;31.04;100606.47;1811888;78;21091;-75
2021/07/26 08:04:05;;;;;;;12.20;8.85;;;;;;;33.54;30.83;100604.95;1810417;78;21037;-74
2021/07/26 08:06:31;;;;;;;14.05;8.70;;;;;;;33.50;29.68;100600.95;1805803;78;21096;-75
2021/07/26 08:09:00;;;;;;;14.80;9.60;;;;;;;33.35;29.75;100598.27;1815183;78;21773;-75
2021/07/26 08:11:27;;;;;;;15.93;9.20;;;;;;;33.41;30.88;100606.22;1796102;78;21059;-75
2021/07/26 08:18:14;;;;;;;15.78;9.80;;;;;;;33.96;29.31;100593.69;1824104;76;75436;-73
2021/07/26 08:20:41;;;;;;;13.85;9.53;;;;;;;33.69;29.57;100604.09;1757766;81;21032;-76
2021/07/26 08:26:12;;;;;;;14.00;10.15;;;;;;;33.63;30.02;100603.80;1713678;81;75125;-88
2021/07/26 08:28:39;;;;;;;15.25;8.93;;;;;;;33.57;30.12;100599.65;1725675;82;21150;-89
2021/07/26 08:31:06;;;;;;;20.05;9.15;;;;;;;33.49;30.40;100597.88;1750052;82;21614;-89
2021/07/26 08:33:33;;;;;;;15.15;9.33;;;;;;;33.21;30.54;100597.81;1726735;82;21213;-89
2021/07/26 08:36:02;;;;;;;15.58;9.68;;;;;;;32.83;31.35;100599.84;1749244;81;21057;-91
2021/07/26 08:38:29;;;;;;;13.25;9.18;;;;;;;32.65;31.81;100607.94;1749628;82;21008;-92
2021/07/26 08:40:56;;;;;;;11.75;8.33;;;;;;;32.52;31.15;100590.03;1726418;83;21066;-87
2021/07/26 08:43:24;;;;;;;14.50;8.63;;;;;;;32.64;31.17;100594.48;1749901;82;21080;-89
2021/07/26 08:45:52;;;;;;;13.22;8.98;;;;;;;32.70;31.08;100593.20;1726640;82;21119;-88
2021/07/26 08:48:20;;;;;;;13.98;9.13;;;;;;;32.90;31.22;100589.86;1750141;82;21187;-91
2021/07/26 08:50:47;;;;;;;19.40;8.73;;;;;;;32.85;31.45;100596.42;1726593;83;21096;-90
2021/07/26 08:53:18;;;;;;;12.78;8.43;;;;;;;32.94;30.93;100590.65;1749871;80;21032;-91
2021/07/26 08:55:48;;;;;;;10.30;7.85;;;;;;;32.78;31.01;100601.30;1747156;82;21615;-88
2021/07/26 08:58:15;;;;;;;30.45;9.35;;;;;;;32.21;32.00;100595.13;1723046;82;22260;-89
2021/07/26 09:00:43;;;;;;;10.53;7.15;;;;;;;31.72;33.08;100601.01;1708428;82;21115;-90
2021/07/26 09:03:10;;;;;;;17.00;8.08;;;;;;;31.30;33.38;100598.25;1753566;80;21041;-89
2021/07/26 09:05:38;;;;;;;16.77;9.25;;;;;;;30.92;33.75;100598.12;1767464;80;21668;-91
2021/07/26 09:08:05;;;;;;;10.43;7.90;;;;;;;30.80;35.00;100594.09;1774109;80;21469;-89
2021/07/26 09:10:36;;;;;;;14.23;9.30;;;;;;;30.74;34.92;100598.38;1752824;80;21109;-89
2021/07/26 09:13:03;;;;;;;15.05;8.98;;;;;;;30.79;35.33;100597.84;1780456;80;21109;-89
2021/07/26 09:15:34;;;;;;;13.90;9.48;;;;;;;30.72;35.03;100589.03;1780449;80;20990;-90
2021/07/26 09:18:03;;;;;;;22.45;9.88;;;;;;;30.73;34.93;100591.23;1775691;80;21521;-89
2021/07/26 09:20:32;;;;;;;14.03;9.60;;;;;;;30.69;35.04;100589.40;1770909;80;20965;-89
2021/07/26 09:23:16;;;;;;;19.27;8.98;;;;;;;30.68;34.87;100586.84;1773457;79;21279;-91
2021/07/26 09:25:46;;;;;;;23.62;9.20;;;;;;;30.65;35.17;100592.13;1750607;80;21095;-91
2021/07/26 09:28:17;;;;;;;11.85;8.75;;;;;;;30.63;35.13;100586.02;1753056;82;21088;-89
2021/07/26 09:30:55;;;;;;;10.50;7.55;;;;;;;30.60;34.65;100585.02;1729501;83;21022;-87
2021/07/26 09:33:31;;;;;;;17.82;8.30;;;;;;;30.44;33.95;100587.80;1744949;81;21112;-92
2021/07/26 09:36:23;;;;;;;13.88;8.43;;;;;;;30.44;33.95;100587.80;1748173;82;21085;-93
2021/07/26 09:38:55;;;;;;;14.25;8.43;;;;;;;30.47;34.31;100581.49;1743032;82;21206;-88
2021/07/26 09:41:48;;;;;;;11.90;7.62;;;;;;;30.67;34.11;100571.58;1726158;83;22290;-90
2021/07/26 09:44:22;;;;;;;10.32;6.92;;;;;;;31.23;34.03;100566.00;1749971;81;21076;-89
2021/07/26 09:46:53;;;;;;;11.57;6.65;;;;;;;31.83;31.17;100574.70;1747816;82;21529;-89
2021/07/26 09:49:21;;;;;;;8.03;6.35;;;;;;;31.98;30.74;100578.34;1726704;83;21080;-92
2021/07/26 09:52:12;;;;;;;9.15;6.40;;;;;;;32.21;30.44;100574.70;1749832;81;21210;-90
2021/07/26 09:54:48;;;;;;;10.40;6.70;;;;;;;32.45;28.04;100582.25;1720320;83;21119;-91
2021/07/26 09:57:23;;;;;;;11.60;7.50;;;;;;;32.31;28.51;100577.97;1721840;81;21092;-90
2021/07/26 09:59:52;;;;;;;10.95;6.78;;;;;;;32.33;28.84;100570.45;1754317;80;21129;-91
2021/07/26 10:02:21;;;;;;;9.50;6.92;;;;;;;32.65;29.29;100576.58;1730431;83;21014;-88
2021/07/26 10:04:48;;;;;;;10.00;7.22;;;;;;;32.84;28.77;100567.47;1751835;82;22257;-91
2021/07/26 10:07:18;;;;;;;14.45;7.00;;;;;;;32.77;29.65;100576.41;1749713;82;21053;-91
2021/07/26 10:09:46;;;;;;;11.57;6.97;;;;;;;32.58;29.08;100589.28;1726671;83;21588;-89
2021/07/26 10:12:19;;;;;;;8.93;6.67;;;;;;;32.04;29.96;100584.06;1748426;82;21089;-91
2021/07/26 10:14:47;;;;;;;11.43;6.97;;;;;;;31.80;30.01;100577.80;1756981;81;21315;-91
2021/07/26 10:17:14;;;;;;;10.38;6.85;;;;;;;31.90;29.84;100574.29;1760546;81;21061;-89
2021/07/26 10:19:43;;;;;;;10.55;7.20;;;;;;;32.01;30.21;100570.83;1725821;82;21113;-90
2021/07/26 10:22:19;;;;;;;10.63;6.50;;;;;;;32.09;29.51;100569.36;1724682;83;21615;-90
2021/07/26 10:24:52;;;;;;;11.53;7.08;;;;;;;32.09;30.01;100568.00;1748634;82;21116;-89
2021/07/26 10:27:29;;;;;;;11.05;6.85;;;;;;;32.18;29.20;100575.05;1746167;80;21077;-88
2021/07/26 10:29:58;;;;;;;10.63;6.87;;;;;;;32.22;28.08;100565.48;1750721;82;21842;-89
2021/07/26 10:32:36;;;;;;;13.43;6.75;;;;;;;32.54;28.36;100564.79;1723146;83;21093;-90
2021/07/26 10:35:07;;;;;;;13.18;7.20;;;;;;;32.56;27.44;100561.36;1746076;82;21132;-90
2021/07/26 10:37:47;;;;;;;16.93;7.75;;;;;;;32.49;28.38;100565.33;1697633;83;21084;-91
2021/07/26 10:40:28;;;;;;;10.43;6.70;;;;;;;32.52;28.85;100565.50;1746777;82;21076;-91
2021/07/26 10:43:01;;;;;;;7.58;6.05;;;;;;;32.28;28.58;100564.73;1699319;83;21137;-90
2021/07/26 10:45:38;;;;;;;9.95;6.87;;;;;;;31.88;29.22;100564.09;1739304;82;21073;-88
2021/07/26 10:48:31;;;;;;;10.80;6.53;;;;;;;31.59;29.95;100569.47;1723528;83;21005;-90
2021/07/26 10:51:01;;;;;;;8.80;6.15;;;;;;;31.43;30.47;100567.23;1744659;80;21091;-93
2021/07/26 10:53:36;;;;;;;11.95;7.20;;;;;;;31.42;30.98;100558.72;1747114;81;20971;-92
2021/07/26 10:56:15;;;;;;;10.18;6.67;;;;;;;31.49;31.33;100559.69;1751259;80;21125;-91
2021/07/26 10:58:58;;;;;;;14.20;6.78;;;;;;;31.60;30.45;100557.57;1751916;81;21080;-92
2021/07/26 11:01:30;;;;;;;13.53;6.67;;;;;;;31.62;30.74;100563.68;1752602;80;21076;-91
2021/07/26 11:03:58;;;;;;;11.97;7.67;;;;;;;31.68;31.12;100559.71;1747750;81;21220;-94
2021/07/26 11:06:41;;;;;;;12.13;7.03;;;;;;;31.68;30.55;100550.67;1744904;81;21057;-93
2021/07/26 11:09:32;;;;;;;14.38;7.30;;;;;;;31.74;30.93;100550.78;1741811;82;21348;-91
2021/07/26 11:12:02;;;;;;;14.85;6.95;;;;;;;31.76;30.64;100545.16;1747958;82;21061;-92
2021/07/26 11:14:29;;;;;;;9.18;6.95;;;;;;;31.94;30.34;100538.84;1746287;80;21073;-91
2021/07/26 11:17:02;;;;;;;9.75;6.90;;;;;;;32.20;30.44;100534.84;1743883;82;21746;-93
2021/07/26 11:19:58;;;;;;;14.40;8.03;;;;;;;32.46;29.89;100536.23;1724337;83;21138;-93
2021/07/26 11:22:36;;;;;;;14.33;6.97;;;;;;;32.75;27.51;100532.11;1720587;81;21144;-94
2021/07/26 11:25:08;;;;;;;12.15;6.60;;;;;;;33.08;27.06;100528.92;1760286;80;21143;-94
2021/07/26 11:27:40;;;;;;;8.13;6.12;;;;;;;33.34;26.94;100529.72;1721041;83;21304;-92
2021/07/26 11:30:08;;;;;;;11.78;6.72;;;;;;;33.53;25.21;100525.46;1718603;81;21830;-91
2021/07/26 11:32:36;;;;;;;9.68;5.92;;;;;;;33.60;25.10;100523.66;1723535;83;21025;-87
2021/07/26 11:35:04;;;;;;;10.15;7.00;;;;;;;33.85;25.58;100510.39;1746000;80;21062;-90
2021/07/26 11:37:36;;;;;;;8.73;6.75;;;;;;;34.36;25.84;100513.33;1722773;83;21348;-89
2021/07/26 11:40:10;;;;;;;11.60;6.28;;;;;;;34.81;25.68;100506.90;1745320;82;21072;-91
2021/07/26 11:42:40;;;;;;;13.80;7.10;;;;;;;35.20;24.63;100516.76;1690727;84;21066;-91
2021/07/26 11:45:15;;;;;;;13.17;6.97;;;;;;;35.36;24.83;100512.77;1757828;81;21578;-89
2021/07/26 11:50:56;;;;;;;8.13;6.60;;;;;;;35.13;24.50;100515.37;1759081;79;21092;-92
2021/07/26 11:53:30;;;;;;;16.15;6.95;;;;;;;34.75;24.71;100512.34;1725467;82;21267;-89
2021/07/26 11:56:00;;;;;;;8.53;6.72;;;;;;;34.51;24.90;100519.16;1728932;81;21058;-93
2021/07/26 11:58:29;;;;;;;9.00;6.97;;;;;;;34.10;25.65;100522.78;1730341;81;21019;-91
2021/07/26 12:00:56;;;;;;;13.98;7.10;;;;;;;33.47;26.74;100525.41;1717710;83;21131;-89
2021/07/26 12:03:24;;;;;;;11.83;7.33;;;;;;;32.88;27.34;100523.77;1716330;83;21020;-88
2021/07/26 12:06:04;;;;;;;7.75;6.70;;;;;;;32.62;27.73;100519.68;1717992;82;21122;-89
2021/07/26 12:08:32;;;;;;;11.90;7.10;;;;;;;32.32;27.78;100519.70;1706586;83;21094;-90
2021/07/26 12:11:01;;;;;;;9.10;6.65;;;;;;;32.04;28.50;100513.24;1719487;83;21542;-88
2021/07/26 12:13:28;;;;;;;10.40;7.60;;;;;;;31.97;28.46;100511.26;1720591;82;21165;-90
2021/07/26 12:16:08;;;;;;;11.57;7.55;;;;;;;32.05;28.77;100513.56;1719792;83;21707;-90
2021/07/26 12:18:36;;;;;;;18.42;7.78;;;;;;;32.03;28.56;100508.32;1756947;81;21067;-89
2021/07/26 12:21:03;;;;;;;13.10;6.83;;;;;;;32.16;29.12;100511.73;1759068;81;21048;-88
2021/07/26 12:23:31;;;;;;;10.93;6.90;;;;;;;32.22;29.47;100508.26;1757332;80;21303;-89
2021/07/26 12:26:08;;;;;;;14.05;7.30;;;;;;;32.17;28.90;100507.98;1729082;82;21098;-88
2021/07/26 12:28:54;;;;;;;13.90;7.83;;;;;;;32.13;29.06;100495.77;1753398;80;21034;-85
2021/07/26 12:31:31;;;;;;;11.70;7.35;;;;;;;32.18;29.35;100499.60;1753689;82;21029;-87
2021/07/26 12:34:18;;;;;;;11.40;7.47;;;;;;;32.16;29.41;100494.02;1744931;82;21014;-87
2021/07/26 12:36:46;;;;;;;10.40;7.55;;;;;;;32.21;28.61;100492.09;1718148;83;21333;-88
2021/07/26 12:39:14;;;;;;;13.22;8.75;;;;;;;32.22;28.63;100490.55;1745900;81;21962;-88
2021/07/26 12:41:47;;;;;;;16.67;8.10;;;;;;;32.20;28.64;100488.53;1723980;83;21082;-87
2021/07/26 12:44:17;;;;;;;12.07;7.62;;;;;;;32.15;28.73;100489.62;1727563;83;21128;-88
2021/07/26 12:46:49;;;;;;;12.93;7.90;;;;;;;32.08;29.09;100491.41;1723468;83;21102;-88
2021/07/26 12:49:17;;;;;;;12.05;7.08;;;;;;;31.97;29.22;100490.83;1719644;83;20991;-87
2021/07/26 12:51:45;;;;;;;13.75;7.40;;;;;;;31.87;28.77;100484.80;1749202;82;21114;-88
2021/07/26 12:54:12;;;;;;;14.43;7.40;;;;;;;31.91;28.99;100487.48;1748775;82;21088;-85
2021/07/26 12:56:39;;;;;;;13.88;7.45;;;;;;;31.82;28.71;100481.80;1747291;82;21085;-88
2021/07/26 12:59:06;;;;;;;14.85;7.30;;;;;;;31.74;29.21;100477.80;1749190;82;21052;-89
2021/07/26 13:01:34;;;;;;;9.13;6.50;;;;;;;31.80;29.12;100478.42;1720904;82;21592;-85
2021/07/26 13:04:01;;;;;;;9.98;7.62;;;;;;;31.76;28.44;100473.01;1747454;82;21111;-90
2021/07/26 13:06:28;;;;;;;11.93;6.83;;;;;;;31.73;28.71;100476.95;1724424;83;21568;-88
2021/07/26 13:08:57;;;;;;;10.70;7.50;;;;;;;31.69;28.50;100476.99;1749137;81;21170;-91
2021/07/26 13:11:24;;;;;;;14.83;7.20;;;;;;;31.63;28.46;100472.80;1725795;82;21037;-91
2021/07/26 13:13:51;;;;;;;14.65;7.20;;;;;;;31.57;29.07;100478.48;1747384;82;21069;-89
2021/07/26 13:16:19;;;;;;;8.80;7.20;;;;;;;31.46;29.28;100475.69;1714762;82;22141;-90